sensor_id;sensor_type;location;lat;lon;timestamp;pressure;altitude;pressure_sealevel;temperature;humidity
73860;BME280;62197;51.632;13.700;2023-04-01T00:01:53;98408.28;;;8.59;100.00
73860;BME280;62197;51.632;13.700;2023-04-01T00:04:19;98417.38;;;8.59;100.00
73860;BME280;62197;51.632;13.700;2023-04-01T00:06:45;98415.16;;;8.56;100.00
73860;BME280;62197;51.632;13.700;2023-04-01T00:09:12;98415.44;;;8.55;100.00
73860;BME280;62197;51.632;13.700;2023-04-01T00:11:37;98412.97;;;8.53;100.00
73860;BME280;62197;51.632;13.700;2023-04-01T00:14:03;98406.09;;;8.51;100.00
73860;BME280;62197;51.632;13.700;2023-04-01T00:16:28;98417.38;;;8.54;100.00
73860;BME280;62197;51.632;13.700;2023-04-01T00:18:54;98420.66;;;8.56;100.00
73860;BME280;62197;51.632;13.700;2023-04-01T00:21:20;98413.53;;;8.55;100.00
73860;BME280;62197;51.632;13.700;2023-04-01T00:23:47;98415.16;;;8.56;100.00
73860;BME280;62197;51.632;13.700;2023-04-01T00:26:12;98415.44;;;8.55;100.00
73860;BME280;62197;51.632;13.700;2023-04-01T00:28:39;98417.38;;;8.54;100.00
73860;BME280;62197;51.632;13.700;2023-04-01T00:31:08;98418.47;;;8.58;100.00
73860;BME280;62197;51.632;13.700;2023-04-01T00:33:34;98409.66;;;8.56;100.00
73860;BME280;62197;51.632;13.700;2023-04-01T00:36:14;98422.59;;;8.61;100.00
73860;BME280;62197;51.632;13.700;2023-04-01T00:38:41;98419.56;;;8.57;100.00
73860;BME280;62197;51.632;13.700;2023-04-01T00:41:07;98423.13;;;8.58;100.00
73860;BME280;62197;51.632;13.700;2023-04-01T00:43:33;98412.69;;;8.55;100.00
73860;BME280;62197;51.632;13.700;2023-04-01T00:45:59;98418.47;;;8.58;100.00
73860;BME280;62197;51.632;13.700;2023-04-01T00:48:32;98420.91;;;8.60;100.00
73860;BME280;62197;51.632;13.700;2023-04-01T00:51:02;98414.63;;;8.59;100.00
73860;BME280;62197;51.632;13.700;2023-04-01T00:53:30;98416.53;;;8.54;100.00
73860;BME280;62197;51.632;13.700;2023-04-01T00:56:00;98415.72;;;8.53;100.00
73860;BME280;62197;51.632;13.700;2023-04-01T00:58:29;98413.53;;;8.55;100.00
73860;BME280;62197;51.632;13.700;2023-04-01T01:00:58;98412.41;;;8.56;100.00
73860;BME280;62197;51.632;13.700;2023-04-01T01:03:24;98416.81;;;8.57;100.00
73860;BME280;62197;51.632;13.700;2023-04-01T01:05:54;98421.47;;;8.67;100.00
73860;BME280;62197;51.632;13.700;2023-04-01T01:08:41;98417.63;;;8.63;100.00
73860;BME280;62197;51.632;13.700;2023-04-01T01:11:14;98408.84;;;8.61;100.00
73860;BME280;62197;51.632;13.700;2023-04-01T01:13:56;98418.19;;;8.65;100.00
73860;BME280;62197;51.632;13.700;2023-04-01T01:16:25;98421.19;;;8.63;100.00
73860;BME280;62197;51.632;13.700;2023-04-01T01:18:58;98421.75;;;8.60;100.00
73860;BME280;62197;51.632;13.700;2023-04-01T01:24:22;98420.38;;;8.63;100.00
73860;BME280;62197;51.632;13.700;2023-04-01T01:32:38;98415.13;;;8.66;100.00
73860;BME280;62197;51.632;13.700;2023-04-01T01:37:37;98425.56;;;8.69;100.00
73860;BME280;62197;51.632;13.700;2023-04-01T01:40:06;98422.84;;;8.64;100.00
73860;BME280;62197;51.632;13.700;2023-04-01T01:42:35;98422.28;;;8.67;100.00
73860;BME280;62197;51.632;13.700;2023-04-01T01:45:04;98426.41;;;8.70;100.00
73860;BME280;62197;51.632;13.700;2023-04-01T01:47:31;98415.97;;;8.67;100.00
73860;BME280;62197;51.632;13.700;2023-04-01T01:49:59;98417.06;;;8.66;100.00
73860;BME280;62197;51.632;13.700;2023-04-01T01:52:27;98415.97;;;8.67;100.00
73860;BME280;62197;51.632;13.700;2023-04-01T01:54:57;98416.78;;;8.67;100.00
73860;BME280;62197;51.632;13.700;2023-04-01T01:57:29;98413.47;;;8.65;100.00
73860;BME280;62197;51.632;13.700;2023-04-01T02:00:00;98423.09;;;8.68;100.00
73860;BME280;62197;51.632;13.700;2023-04-01T02:02:27;98415.69;;;8.63;100.00
73860;BME280;62197;51.632;13.700;2023-04-01T02:04:56;98417.91;;;8.61;100.00
73860;BME280;62197;51.632;13.700;2023-04-01T02:07:26;98422.00;;;8.64;100.00
73860;BME280;62197;51.632;13.700;2023-04-01T02:09:53;98424.47;;;8.65;100.00
73860;BME280;62197;51.632;13.700;2023-04-01T02:12:19;98435.47;;;8.65;100.00
73860;BME280;62197;51.632;13.700;2023-04-01T02:14:55;98424.22;;;8.67;100.00
73860;BME280;62197;51.632;13.700;2023-04-01T02:17:27;98422.28;;;8.67;100.00
73860;BME280;62197;51.632;13.700;2023-04-01T02:20:01;98419.53;;;8.62;100.00
73860;BME280;62197;51.632;13.700;2023-04-01T02:22:32;98423.66;;;8.70;100.00
73860;BME280;62197;51.632;13.700;2023-04-01T02:25:03;98412.94;;;8.68;100.00
73860;BME280;62197;51.632;13.700;2023-04-01T02:27:30;98406.63;;;8.58;100.00
73860;BME280;62197;51.632;13.700;2023-04-01T02:29:55;98418.44;;;8.63;100.00
73860;BME280;62197;51.632;13.700;2023-04-01T02:32:20;98422.28;;;8.67;100.00
73860;BME280;62197;51.632;13.700;2023-04-01T02:34:46;98425.03;;;8.67;100.00
73860;BME280;62197;51.632;13.700;2023-04-01T02:37:13;98429.44;;;8.63;100.00
73860;BME280;62197;51.632;13.700;2023-04-01T02:39:39;98415.72;;;8.53;100.00
73860;BME280;62197;51.632;13.700;2023-04-01T02:42:05;98434.94;;;8.58;100.00
73860;BME280;62197;51.632;13.700;2023-04-01T02:44:30;98445.41;;;8.61;100.00
73860;BME280;62197;51.632;13.700;2023-04-01T02:46:56;98439.63;;;8.58;100.00
73860;BME280;62197;51.632;13.700;2023-04-01T02:49:21;98447.63;;;8.59;100.00
73860;BME280;62197;51.632;13.700;2023-04-01T02:51:46;98439.91;;;8.56;100.00
73860;BME280;62197;51.632;13.700;2023-04-01T02:54:12;98443.75;;;8.60;100.00
73860;BME280;62197;51.632;13.700;2023-04-01T02:56:37;98449.28;;;8.55;100.00
73860;BME280;62197;51.632;13.700;2023-04-01T02:59:02;98454.19;;;8.58;100.00
73860;BME280;62197;51.632;13.700;2023-04-01T03:01:27;98454.47;;;8.57;100.00
73860;BME280;62197;51.632;13.700;2023-04-01T03:03:52;98456.13;;;8.58;100.00
73860;BME280;62197;51.632;13.700;2023-04-01T03:06:18;98459.16;;;8.61;100.00
73860;BME280;62197;51.632;13.700;2023-04-01T03:08:43;98459.97;;;8.57;100.00
73860;BME280;62197;51.632;13.700;2023-04-01T03:11:10;98464.09;;;8.54;100.00
73860;BME280;62197;51.632;13.700;2023-04-01T03:13:35;98469.31;;;8.56;100.00
73860;BME280;62197;51.632;13.700;2023-04-01T03:16:01;98456.41;;;8.51;100.00
73860;BME280;62197;51.632;13.700;2023-04-01T03:18:26;98467.69;;;8.55;100.00
73860;BME280;62197;51.632;13.700;2023-04-01T03:20:51;98471.81;;;8.57;100.00
73860;BME280;62197;51.632;13.700;2023-04-01T03:23:16;98466.84;;;8.54;100.00
73860;BME280;62197;51.632;13.700;2023-04-01T03:25:44;98460.81;;;8.52;100.00
73860;BME280;62197;51.632;13.700;2023-04-01T03:28:09;98466.84;;;8.54;100.00
73860;BME280;62197;51.632;13.700;2023-04-01T03:30:35;98469.06;;;8.47;100.00
73860;BME280;62197;51.632;13.700;2023-04-01T03:33:00;98470.97;;;8.52;100.00
73860;BME280;62197;51.632;13.700;2023-04-01T03:35:27;98467.94;;;8.48;100.00
73860;BME280;62197;51.632;13.700;2023-04-01T03:37:52;98470.72;;;8.53;100.00
73860;BME280;62197;51.632;13.700;2023-04-01T03:40:18;98469.34;;;8.46;100.00
73860;BME280;62197;51.632;13.700;2023-04-01T03:42:43;98472.34;;;8.44;100.00
73860;BME280;62197;51.632;13.700;2023-04-01T03:45:09;98475.13;;;8.49;100.00
73860;BME280;62197;51.632;13.700;2023-04-01T03:47:35;98478.41;;;8.51;100.00
73860;BME280;62197;51.632;13.700;2023-04-01T03:50:00;98486.09;;;8.49;100.00
73860;BME280;62197;51.632;13.700;2023-04-01T03:52:25;98475.66;;;8.46;100.00
73860;BME280;62197;51.632;13.700;2023-04-01T03:54:51;98482.25;;;8.50;100.00
73860;BME280;62197;51.632;13.700;2023-04-01T03:57:16;98485.84;;;8.46;100.00
73860;BME280;62197;51.632;13.700;2023-04-01T03:59:41;98487.75;;;8.50;100.00
73860;BME280;62197;51.632;13.700;2023-04-01T04:02:06;98493.25;;;8.50;100.00
73860;BME280;62197;51.632;13.700;2023-04-01T04:04:32;98482.81;;;8.57;100.00
73860;BME280;62197;51.632;13.700;2023-04-01T04:06:57;98492.41;;;8.50;100.00
73860;BME280;62197;51.632;13.700;2023-04-01T04:09:22;98476.75;;;8.40;100.00
73860;BME280;62197;51.632;13.700;2023-04-01T04:11:48;98485.56;;;8.47;100.00
73860;BME280;62197;51.632;13.700;2023-04-01T04:14:13;98484.44;;;8.48;100.00
73860;BME280;62197;51.632;13.700;2023-04-01T04:16:38;98501.50;;;8.50;100.00
73860;BME280;62197;51.632;13.700;2023-04-01T04:19:04;98496.28;;;8.49;100.00
73860;BME280;62197;51.632;13.700;2023-04-01T04:21:29;98488.84;;;8.39;100.00
73860;BME280;62197;51.632;13.700;2023-04-01T04:23:55;98502.34;;;8.46;100.00
73860;BME280;62197;51.632;13.700;2023-04-01T04:26:20;98497.91;;;8.50;100.00
73860;BME280;62197;51.632;13.700;2023-04-01T04:28:46;98500.94;;;8.48;100.00
73860;BME280;62197;51.632;13.700;2023-04-01T04:31:11;98503.13;;;8.46;100.00
73860;BME280;62197;51.632;13.700;2023-04-01T04:33:37;98492.41;;;8.50;100.00
73860;BME280;62197;51.632;13.700;2023-04-01T04:36:03;98506.44;;;8.48;100.00
73860;BME280;62197;51.632;13.700;2023-04-01T04:38:29;98503.13;;;8.56;100.00
73860;BME280;62197;51.632;13.700;2023-04-01T04:40:55;98517.44;;;8.53;100.00
73860;BME280;62197;51.632;13.700;2023-04-01T04:43:20;98513.59;;;8.54;100.00
73860;BME280;62197;51.632;13.700;2023-04-01T04:45:46;98510.31;;;8.47;100.00
73860;BME280;62197;51.632;13.700;2023-04-01T04:48:13;98517.69;;;8.52;100.00
73860;BME280;62197;51.632;13.700;2023-04-01T04:50:43;98511.94;;;8.48;100.00
73860;BME280;62197;51.632;13.700;2023-04-01T04:53:12;98514.69;;;8.53;100.00
73860;BME280;62197;51.632;13.700;2023-04-01T04:55:46;98518.00;;;8.55;100.00
73860;BME280;62197;51.632;13.700;2023-04-01T04:58:12;98508.09;;;8.49;100.00
73860;BME280;62197;51.632;13.700;2023-04-01T05:00:37;98517.97;;;8.65;100.00
73860;BME280;62197;51.632;13.700;2023-04-01T05:03:02;98521.25;;;8.67;100.00
73860;BME280;62197;51.632;13.700;2023-04-01T05:05:27;98514.66;;;8.63;100.00
73860;BME280;62197;51.632;13.700;2023-04-01T05:07:53;98523.47;;;8.70;100.00
73860;BME280;62197;51.632;13.700;2023-04-01T05:10:18;98523.47;;;8.75;100.00
73860;BME280;62197;51.632;13.700;2023-04-01T05:12:45;98522.38;;;8.71;100.00
73860;BME280;62197;51.632;13.700;2023-04-01T05:15:11;98513.59;;;8.64;100.00
73860;BME280;62197;51.632;13.700;2023-04-01T05:17:36;98531.72;;;8.70;100.00
73860;BME280;62197;51.632;13.700;2023-04-01T05:20:01;98521.25;;;8.77;100.00
73860;BME280;62197;51.632;13.700;2023-04-01T05:22:26;98536.69;;;8.78;100.00
73860;BME280;62197;51.632;13.700;2023-04-01T05:24:52;98540.53;;;8.82;100.00
73860;BME280;62197;51.632;13.700;2023-04-01T05:27:17;98531.97;;;8.79;100.00
73860;BME280;62197;51.632;13.700;2023-04-01T05:29:42;98531.16;;;8.83;100.00
73860;BME280;62197;51.632;13.700;2023-04-01T05:32:08;98541.63;;;8.86;100.00
73860;BME280;62197;51.632;13.700;2023-04-01T05:34:33;98538.59;;;8.88;100.00
73860;BME280;62197;51.632;13.700;2023-04-01T05:36:58;98542.16;;;8.83;100.00
73860;BME280;62197;51.632;13.700;2023-04-01T05:39:23;98542.72;;;8.80;100.00
73860;BME280;62197;51.632;13.700;2023-04-01T05:41:49;98551.78;;;8.86;100.00
73860;BME280;62197;51.632;13.700;2023-04-01T05:44:14;98544.34;;;8.81;100.00
73860;BME280;62197;51.632;13.700;2023-04-01T05:46:39;98547.94;;;8.77;100.00
73860;BME280;62197;51.632;13.700;2023-04-01T05:49:05;98546.53;;;8.94;100.00
73860;BME280;62197;51.632;13.700;2023-04-01T05:51:30;98543.53;;;8.91;100.00
73860;BME280;62197;51.632;13.700;2023-04-01T05:53:55;98545.44;;;8.95;100.00
73860;BME280;62197;51.632;13.700;2023-04-01T05:56:21;98552.59;;;8.96;100.00
73860;BME280;62197;51.632;13.700;2023-04-01T05:58:51;98559.75;;;8.97;100.00
73860;BME280;62197;51.632;13.700;2023-04-01T06:01:19;98552.03;;;8.99;100.00
73860;BME280;62197;51.632;13.700;2023-04-01T06:03:44;98545.44;;;8.95;100.00
73860;BME280;62197;51.632;13.700;2023-04-01T06:06:15;98550.88;;;9.16;100.00
73860;BME280;62197;51.632;13.700;2023-04-01T06:08:41;98557.78;;;9.23;100.00
73860;BME280;62197;51.632;13.700;2023-04-01T06:11:19;98556.38;;;9.31;100.00
73860;BME280;62197;51.632;13.700;2023-04-01T06:14:01;98557.22;;;9.16;100.00
73860;BME280;62197;51.632;13.700;2023-04-01T06:19:25;98565.16;;;9.38;100.00
73860;BME280;62197;51.632;13.700;2023-04-01T06:22:15;98551.38;;;9.43;100.00
73860;BME280;62197;51.632;13.700;2023-04-01T06:30:34;98572.75;;;9.66;100.00
73860;BME280;62197;51.632;13.700;2023-04-01T06:35:50;98569.59;;;9.97;100.00
73860;BME280;62197;51.632;13.700;2023-04-01T06:38:29;98570.94;;;10.10;100.00
73860;BME280;62197;51.632;13.700;2023-04-01T06:41:08;98581.41;;;10.08;100.00
73860;BME280;62197;51.632;13.700;2023-04-01T06:43:50;98575.78;;;10.28;100.00
73860;BME280;62197;51.632;13.700;2023-04-01T06:46:39;98573.00;;;10.33;100.00
73860;BME280;62197;51.632;13.700;2023-04-01T06:52:26;98578.09;;;10.11;100.00
73860;BME280;62197;51.632;13.700;2023-04-01T06:55:02;98581.13;;;10.04;100.00
73860;BME280;62197;51.632;13.700;2023-04-01T06:57:39;98581.41;;;10.08;100.00
73860;BME280;62197;51.632;13.700;2023-04-01T07:00:14;98588.53;;;10.09;100.00
73860;BME280;62197;51.632;13.700;2023-04-01T07:02:47;98587.19;;;10.12;100.00
73860;BME280;62197;51.632;13.700;2023-04-01T07:05:14;98590.44;;;10.19;100.00
73860;BME280;62197;51.632;13.700;2023-04-01T07:07:46;98598.28;;;10.45;100.00
73860;BME280;62197;51.632;13.700;2023-04-01T07:10:52;98607.19;;;10.32;100.00
73860;BME280;62197;51.632;13.700;2023-04-01T07:13:32;98589.03;;;10.26;100.00
73860;BME280;62197;51.632;13.700;2023-04-01T07:19:05;98600.53;;;10.38;100.00
73860;BME280;62197;51.632;13.700;2023-04-01T07:21:37;98589.75;;;10.42;100.00
73860;BME280;62197;51.632;13.700;2023-04-01T07:24:10;98603.28;;;10.38;100.00
73860;BME280;62197;51.632;13.700;2023-04-01T07:26:38;98600.00;;;10.36;100.00
73860;BME280;62197;51.632;13.700;2023-04-01T07:29:14;98596.16;;;10.32;100.00
73860;BME280;62197;51.632;13.700;2023-04-01T07:37:38;98607.63;;;10.49;100.00
73860;BME280;62197;51.632;13.700;2023-04-01T07:48:42;98622.28;;;10.45;100.00
73860;BME280;62197;51.632;13.700;2023-04-01T07:51:33;98625.84;;;10.45;100.00
73860;BME280;62197;51.632;13.700;2023-04-01T08:04:38;98638.25;;;10.86;100.00
73860;BME280;62197;51.632;13.700;2023-04-01T08:07:10;98639.66;;;10.84;100.00
73860;BME280;62197;51.632;13.700;2023-04-01T08:09:45;98643.59;;;10.78;100.00
73860;BME280;62197;51.632;13.700;2023-04-01T08:12:21;98642.22;;;10.75;100.00
73860;BME280;62197;51.632;13.700;2023-04-01T08:15:16;98636.88;;;10.84;100.00
73860;BME280;62197;51.632;13.700;2023-04-01T08:17:55;98646.41;;;11.02;100.00
73860;BME280;62197;51.632;13.700;2023-04-01T08:20:32;98643.69;;;11.30;100.00
73860;BME280;62197;51.632;13.700;2023-04-01T08:25:40;98635.78;;;11.19;100.00
73860;BME280;62197;51.632;13.700;2023-04-01T08:31:23;98642.88;;;11.30;100.00
73860;BME280;62197;51.632;13.700;2023-04-01T08:33:53;98655.38;;;11.17;100.00
73860;BME280;62197;51.632;13.700;2023-04-01T08:36:24;98643.41;;;11.32;100.00
73860;BME280;62197;51.632;13.700;2023-04-01T08:38:55;98650.66;;;11.51;100.00
73860;BME280;62197;51.632;13.700;2023-04-01T08:41:39;98647.69;;;11.43;100.00
73860;BME280;62197;51.632;13.700;2023-04-01T08:44:23;98652.63;;;11.46;100.00
73860;BME280;62197;51.632;13.700;2023-04-01T08:52:21;98642.66;;;11.50;100.00
73860;BME280;62197;51.632;13.700;2023-04-01T08:55:25;98651.63;;;11.37;100.00
73860;BME280;62197;51.632;13.700;2023-04-01T09:15:16;98663.13;;;12.25;100.00
73860;BME280;62197;51.632;13.700;2023-04-01T09:21:08;98660.78;;;11.90;99.46
73860;BME280;62197;51.632;13.700;2023-04-01T09:23:58;98656.56;;;12.39;96.07
73860;BME280;62197;51.632;13.700;2023-04-01T09:29:34;98666.53;;;12.17;96.92
73860;BME280;62197;51.632;13.700;2023-04-01T09:32:26;98664.94;;;12.11;95.61
73860;BME280;62197;51.632;13.700;2023-04-01T09:38:06;98669.41;;;12.30;96.26
73860;BME280;62197;51.632;13.700;2023-04-01T09:40:55;98672.00;;;12.22;95.76
73860;BME280;62197;51.632;13.700;2023-04-01T09:43:39;98674.94;;;12.30;96.60
73860;BME280;62197;51.632;13.700;2023-04-01T09:48:50;98677.41;;;12.32;95.26
73860;BME280;62197;51.632;13.700;2023-04-01T09:54:13;98674.41;;;13.08;90.60
73860;BME280;62197;51.632;13.700;2023-04-01T09:59:32;98675.28;;;13.22;90.85
73860;BME280;62197;51.632;13.700;2023-04-01T10:13:46;98684.25;;;12.77;88.27
73860;BME280;62197;51.632;13.700;2023-04-01T10:27:40;98688.88;;;12.20;96.39
73860;BME280;62197;51.632;13.700;2023-04-01T10:33:54;98691.94;;;12.61;96.20
73860;BME280;62197;51.632;13.700;2023-04-01T10:36:24;98684.88;;;12.74;91.32
73860;BME280;62197;51.632;13.700;2023-04-01T10:50:48;98685.31;;;14.09;82.23
73860;BME280;62197;51.632;13.700;2023-04-01T10:53:36;98678.31;;;13.98;79.50
73860;BME280;62197;51.632;13.700;2023-04-01T11:01:47;98677.50;;;13.98;83.00
73860;BME280;62197;51.632;13.700;2023-04-01T11:07:40;98680.97;;;13.76;83.56
73860;BME280;62197;51.632;13.700;2023-04-01T11:16:12;98686.06;;;13.23;83.77
73860;BME280;62197;51.632;13.700;2023-04-01T11:21:39;98686.78;;;13.61;83.48
73860;BME280;62197;51.632;13.700;2023-04-01T11:27:19;98685.06;;;14.87;78.82
73860;BME280;62197;51.632;13.700;2023-04-01T11:30:16;98691.72;;;15.00;75.02
73860;BME280;62197;51.632;13.700;2023-04-01T11:32:52;98692.69;;;14.82;75.25
73860;BME280;62197;51.632;13.700;2023-04-01T11:35:32;98693.53;;;14.82;74.74
73860;BME280;62197;51.632;13.700;2023-04-01T11:38:14;98697.34;;;14.18;77.00
73860;BME280;62197;51.632;13.700;2023-04-01T11:40:51;98696.88;;;13.71;81.82
73860;BME280;62197;51.632;13.700;2023-04-01T11:43:38;98706.44;;;13.78;78.99
73860;BME280;62197;51.632;13.700;2023-04-01T11:46:11;98700.88;;;13.78;79.56
73860;BME280;62197;51.632;13.700;2023-04-01T11:59:51;98710.09;;;12.91;84.75
73860;BME280;62197;51.632;13.700;2023-04-01T12:05:47;98723.38;;;13.12;86.63
73860;BME280;62197;51.632;13.700;2023-04-01T12:11:15;98713.44;;;13.76;83.24
73860;BME280;62197;51.632;13.700;2023-04-01T12:13:53;98713.81;;;13.69;83.05
73860;BME280;62197;51.632;13.700;2023-04-01T12:19:01;98718.47;;;13.87;77.22
73860;BME280;62197;51.632;13.700;2023-04-01T12:21:49;98721.69;;;14.89;76.06
73860;BME280;62197;51.632;13.700;2023-04-01T12:24:29;98718.81;;;14.81;73.54
73860;BME280;62197;51.632;13.700;2023-04-01T12:29:48;98721.09;;;15.72;69.58
73860;BME280;62197;51.632;13.700;2023-04-01T12:35:18;98723.28;;;15.84;68.31
73860;BME280;62197;51.632;13.700;2023-04-01T12:38:07;98721.50;;;16.18;68.04
73860;BME280;62197;51.632;13.700;2023-04-01T12:40:46;98723.00;;;15.63;68.27
73860;BME280;62197;51.632;13.700;2023-04-01T12:47:11;98728.72;;;15.89;70.23
73860;BME280;62197;51.632;13.700;2023-04-01T12:52:10;98720.78;;;18.11;61.17
73860;BME280;62197;51.632;13.700;2023-04-01T12:57:43;98729.72;;;17.70;61.81
73860;BME280;62197;51.632;13.700;2023-04-01T13:00:30;98723.25;;;16.37;67.46
73860;BME280;62197;51.632;13.700;2023-04-01T13:03:35;98724.31;;;15.44;72.36
73860;BME280;62197;51.632;13.700;2023-04-01T13:08:50;98734.50;;;14.50;77.40
73860;BME280;62197;51.632;13.700;2023-04-01T13:12:05;98729.47;;;14.52;77.81
73860;BME280;62197;51.632;13.700;2023-04-01T13:14:27;98740.91;;;14.04;83.84
73860;BME280;62197;51.632;13.700;2023-04-01T13:17:21;98745.09;;;13.00;96.57
73860;BME280;62197;51.632;13.700;2023-04-01T13:20:02;98748.03;;;12.24;100.00
73860;BME280;62197;51.632;13.700;2023-04-01T13:22:45;98741.78;;;12.14;100.00
73860;BME280;62197;51.632;13.700;2023-04-01T13:25:26;98751.81;;;12.10;100.00
73860;BME280;62197;51.632;13.700;2023-04-01T13:28:04;98755.25;;;12.20;100.00
73860;BME280;62197;51.632;13.700;2023-04-01T13:31:01;98758.91;;;11.87;100.00
73860;BME280;62197;51.632;13.700;2023-04-01T13:33:50;98751.22;;;11.84;100.00
73860;BME280;62197;51.632;13.700;2023-04-01T13:36:37;98756.47;;;11.86;100.00
73860;BME280;62197;51.632;13.700;2023-04-01T13:39:20;98767.28;;;11.82;100.00
73860;BME280;62197;51.632;13.700;2023-04-01T13:42:09;98776.50;;;11.67;100.00
73860;BME280;62197;51.632;13.700;2023-04-01T13:44:48;98778.66;;;11.75;100.00
73860;BME280;62197;51.632;13.700;2023-04-01T13:50:12;98782.50;;;11.79;100.00
73860;BME280;62197;51.632;13.700;2023-04-01T13:55:29;98777.94;;;11.94;100.00
73860;BME280;62197;51.632;13.700;2023-04-01T14:04:18;98789.72;;;11.75;100.00
73860;BME280;62197;51.632;13.700;2023-04-01T14:07:08;98785.50;;;11.83;100.00
73860;BME280;62197;51.632;13.700;2023-04-01T14:10:00;98772.34;;;11.70;100.00
73860;BME280;62197;51.632;13.700;2023-04-01T14:15:39;98786.16;;;11.70;100.00
73860;BME280;62197;51.632;13.700;2023-04-01T14:20:57;98784.63;;;11.88;100.00
73860;BME280;62197;51.632;13.700;2023-04-01T14:23:47;98792.53;;;11.99;100.00
73860;BME280;62197;51.632;13.700;2023-04-01T14:26:26;98783.66;;;12.02;100.00
73860;BME280;62197;51.632;13.700;2023-04-01T14:34:32;98797.56;;;12.21;100.00
73860;BME280;62197;51.632;13.700;2023-04-01T14:40:40;98797.75;;;14.20;87.98
73860;BME280;62197;51.632;13.700;2023-04-01T14:46:48;98795.50;;;13.58;87.81
73860;BME280;62197;51.632;13.700;2023-04-01T14:49:20;98791.16;;;13.15;89.89
73860;BME280;62197;51.632;13.700;2023-04-01T14:51:48;98797.41;;;13.02;90.48
73860;BME280;62197;51.632;13.700;2023-04-01T14:56:49;98802.72;;;13.22;91.96
73860;BME280;62197;51.632;13.700;2023-04-01T15:02:01;98806.75;;;13.48;89.83
73860;BME280;62197;51.632;13.700;2023-04-01T15:16:39;98816.03;;;13.20;94.53
73860;BME280;62197;51.632;13.700;2023-04-01T15:22:39;98823.97;;;13.03;94.83
73860;BME280;62197;51.632;13.700;2023-04-01T15:28:10;98822.16;;;12.93;95.94
73860;BME280;62197;51.632;13.700;2023-04-01T15:30:58;98839.03;;;12.49;95.15
73860;BME280;62197;51.632;13.700;2023-04-01T15:33:32;98839.63;;;12.46;95.84
73860;BME280;62197;51.632;13.700;2023-04-01T15:36:27;98843.56;;;12.40;97.10
73860;BME280;62197;51.632;13.700;2023-04-01T15:39:13;98843.69;;;12.25;93.72
73860;BME280;62197;51.632;13.700;2023-04-01T15:44:44;98844.28;;;11.94;100.00
73860;BME280;62197;51.632;13.700;2023-04-01T15:50:23;98850.38;;;11.52;100.00
73860;BME280;62197;51.632;13.700;2023-04-01T15:53:32;98862.47;;;11.17;100.00
73860;BME280;62197;51.632;13.700;2023-04-01T16:05:37;98885.63;;;10.52;100.00
73860;BME280;62197;51.632;13.700;2023-04-01T16:08:39;98882.09;;;10.37;100.00
73860;BME280;62197;51.632;13.700;2023-04-01T16:11:25;98876.03;;;10.25;100.00
73860;BME280;62197;51.632;13.700;2023-04-01T16:14:06;98881.56;;;10.20;100.00
73860;BME280;62197;51.632;13.700;2023-04-01T16:16:57;98894.22;;;10.11;100.00
73860;BME280;62197;51.632;13.700;2023-04-01T16:22:20;98904.97;;;9.87;100.00
73860;BME280;62197;51.632;13.700;2023-04-01T16:24:55;98906.88;;;9.81;100.00
73860;BME280;62197;51.632;13.700;2023-04-01T16:27:46;98914.31;;;9.76;100.00
73860;BME280;62197;51.632;13.700;2023-04-01T16:30:35;98912.09;;;9.68;100.00
73860;BME280;62197;51.632;13.700;2023-04-01T16:33:21;98912.34;;;9.51;100.00
73860;BME280;62197;51.632;13.700;2023-04-01T16:38:19;98936.81;;;9.38;100.00
73860;BME280;62197;51.632;13.700;2023-04-01T16:41:11;98947.03;;;9.42;100.00
73860;BME280;62197;51.632;13.700;2023-04-01T16:43:56;98943.44;;;9.37;100.00
73860;BME280;62197;51.632;13.700;2023-04-01T16:49:04;98947.50;;;9.19;100.00
73860;BME280;62197;51.632;13.700;2023-04-01T16:54:36;98949.38;;;9.03;100.00
73860;BME280;62197;51.632;13.700;2023-04-01T17:02:13;98976.66;;;9.15;100.00
73860;BME280;62197;51.632;13.700;2023-04-01T17:07:57;98987.88;;;9.03;100.00
73860;BME280;62197;51.632;13.700;2023-04-01T17:10:37;98998.84;;;8.98;100.00
73860;BME280;62197;51.632;13.700;2023-04-01T17:21:20;99005.72;;;8.54;100.00
73860;BME280;62197;51.632;13.700;2023-04-01T17:23:52;99011.97;;;8.45;100.00
73860;BME280;62197;51.632;13.700;2023-04-01T17:26:35;99015.56;;;8.50;100.00
73860;BME280;62197;51.632;13.700;2023-04-01T17:29:05;99014.50;;;8.51;100.00
73860;BME280;62197;51.632;13.700;2023-04-01T17:39:42;99030.78;;;8.26;100.00
73860;BME280;62197;51.632;13.700;2023-04-01T17:42:19;99035.75;;;8.29;100.00
73860;BME280;62197;51.632;13.700;2023-04-01T17:44:59;99038.44;;;8.24;100.00
73860;BME280;62197;51.632;13.700;2023-04-01T17:50:05;99054.50;;;8.10;100.00
73860;BME280;62197;51.632;13.700;2023-04-01T17:52:58;99052.53;;;8.06;100.00
73860;BME280;62197;51.632;13.700;2023-04-01T17:55:46;99056.28;;;7.95;100.00
73860;BME280;62197;51.632;13.700;2023-04-01T17:58:19;99058.44;;;7.93;100.00
73860;BME280;62197;51.632;13.700;2023-04-01T18:03:45;99072.91;;;7.83;100.00
73860;BME280;62197;51.632;13.700;2023-04-01T18:09:12;99082.34;;;7.71;100.00
73860;BME280;62197;51.632;13.700;2023-04-01T18:14:36;99088.94;;;7.70;100.00
73860;BME280;62197;51.632;13.700;2023-04-01T18:17:18;99082.31;;;7.66;100.00
73860;BME280;62197;51.632;13.700;2023-04-01T18:22:43;99104.09;;;7.51;100.00
73860;BME280;62197;51.632;13.700;2023-04-01T18:25:25;99093.91;;;7.51;100.00
73860;BME280;62197;51.632;13.700;2023-04-01T18:28:26;99105.25;;;7.55;100.00
73860;BME280;62197;51.632;13.700;2023-04-01T18:39:12;99118.81;;;7.45;100.00
73860;BME280;62197;51.632;13.700;2023-04-01T18:44:29;99132.97;;;7.37;100.00
73860;BME280;62197;51.632;13.700;2023-04-01T18:47:03;99132.97;;;7.37;100.00